sensor_id;sensor_type;location;lat;lon;timestamp;P1;durP1;ratioP1;P2;durP2;ratioP2
19907;SDS011;10116;53.112;7.356;2023-04-03T00:01:02;0.80;;;0.70;;
19907;SDS011;10116;53.112;7.356;2023-04-03T00:03:29;0.70;;;0.70;;
19907;SDS011;10116;53.112;7.356;2023-04-03T00:05:54;0.60;;;0.60;;
19907;SDS011;10116;53.112;7.356;2023-04-03T00:08:20;0.67;;;0.67;;
19907;SDS011;10116;53.112;7.356;2023-04-03T00:10:46;0.80;;;0.80;;
19907;SDS011;10116;53.112;7.356;2023-04-03T00:13:12;0.80;;;0.80;;
19907;SDS011;10116;53.112;7.356;2023-04-03T00:15:38;0.77;;;0.70;;
19907;SDS011;10116;53.112;7.356;2023-04-03T00:18:04;0.60;;;0.60;;
19907;SDS011;10116;53.112;7.356;2023-04-03T00:20:31;1.20;;;1.10;;
19907;SDS011;10116;53.112;7.356;2023-04-03T00:22:57;1.33;;;1.03;;
19907;SDS011;10116;53.112;7.356;2023-04-03T00:25:22;0.70;;;0.50;;
19907;SDS011;10116;53.112;7.356;2023-04-03T00:27:48;1.00;;;0.73;;
19907;SDS011;10116;53.112;7.356;2023-04-03T00:30:15;0.87;;;0.57;;
19907;SDS011;10116;53.112;7.356;2023-04-03T00:32:43;0.80;;;0.80;;
19907;SDS011;10116;53.112;7.356;2023-04-03T00:35:08;0.80;;;0.70;;
19907;SDS011;10116;53.112;7.356;2023-04-03T00:37:35;0.60;;;0.60;;
19907;SDS011;10116;53.112;7.356;2023-04-03T00:40:01;0.90;;;0.80;;
19907;SDS011;10116;53.112;7.356;2023-04-03T00:42:28;0.60;;;0.60;;
19907;SDS011;10116;53.112;7.356;2023-04-03T00:47:22;1.00;;;0.80;;
19907;SDS011;10116;53.112;7.356;2023-04-03T00:49:49;1.07;;;0.60;;
19907;SDS011;10116;53.112;7.356;2023-04-03T00:52:17;0.70;;;0.70;;
19907;SDS011;10116;53.112;7.356;2023-04-03T00:54:46;0.73;;;0.73;;
19907;SDS011;10116;53.112;7.356;2023-04-03T00:57:14;0.80;;;0.70;;
19907;SDS011;10116;53.112;7.356;2023-04-03T00:59:48;3.13;;;0.77;;
19907;SDS011;10116;53.112;7.356;2023-04-03T01:02:16;0.73;;;0.73;;
19907;SDS011;10116;53.112;7.356;2023-04-03T01:04:43;0.70;;;0.70;;
19907;SDS011;10116;53.112;7.356;2023-04-03T01:07:13;0.90;;;0.90;;
19907;SDS011;10116;53.112;7.356;2023-04-03T01:09:43;0.60;;;0.60;;
19907;SDS011;10116;53.112;7.356;2023-04-03T01:14:46;0.83;;;0.83;;
19907;SDS011;10116;53.112;7.356;2023-04-03T01:17:33;0.90;;;0.90;;
19907;SDS011;10116;53.112;7.356;2023-04-03T01:25:46;0.70;;;0.70;;
19907;SDS011;10116;53.112;7.356;2023-04-03T01:28:15;0.60;;;0.60;;
19907;SDS011;10116;53.112;7.356;2023-04-03T01:33:30;1.20;;;0.90;;
19907;SDS011;10116;53.112;7.356;2023-04-03T01:35:56;0.77;;;0.77;;
19907;SDS011;10116;53.112;7.356;2023-04-03T01:38:22;0.60;;;0.60;;
19907;SDS011;10116;53.112;7.356;2023-04-03T01:40:48;0.70;;;0.70;;
19907;SDS011;10116;53.112;7.356;2023-04-03T01:43:13;0.60;;;0.60;;
19907;SDS011;10116;53.112;7.356;2023-04-03T01:45:39;0.63;;;0.63;;
19907;SDS011;10116;53.112;7.356;2023-04-03T01:48:05;0.70;;;0.70;;
19907;SDS011;10116;53.112;7.356;2023-04-03T01:50:31;0.97;;;0.80;;
19907;SDS011;10116;53.112;7.356;2023-04-03T01:52:56;0.80;;;0.80;;
19907;SDS011;10116;53.112;7.356;2023-04-03T01:55:22;0.70;;;0.70;;
19907;SDS011;10116;53.112;7.356;2023-04-03T01:57:48;1.23;;;0.80;;
19907;SDS011;10116;53.112;7.356;2023-04-03T02:00:13;0.80;;;0.80;;
19907;SDS011;10116;53.112;7.356;2023-04-03T02:02:39;1.30;;;0.80;;
19907;SDS011;10116;53.112;7.356;2023-04-03T02:05:05;1.00;;;0.90;;
19907;SDS011;10116;53.112;7.356;2023-04-03T02:07:31;1.47;;;0.90;;
19907;SDS011;10116;53.112;7.356;2023-04-03T02:09:57;0.97;;;0.70;;
19907;SDS011;10116;53.112;7.356;2023-04-03T02:12:22;0.83;;;0.80;;
19907;SDS011;10116;53.112;7.356;2023-04-03T02:14:48;1.70;;;0.80;;
19907;SDS011;10116;53.112;7.356;2023-04-03T02:17:13;1.90;;;1.00;;
19907;SDS011;10116;53.112;7.356;2023-04-03T02:19:39;0.60;;;0.60;;
19907;SDS011;10116;53.112;7.356;2023-04-03T02:22:05;0.73;;;0.53;;
19907;SDS011;10116;53.112;7.356;2023-04-03T02:24:31;0.63;;;0.63;;
19907;SDS011;10116;53.112;7.356;2023-04-03T02:26:57;0.60;;;0.60;;
19907;SDS011;10116;53.112;7.356;2023-04-03T02:29:23;0.90;;;0.70;;
19907;SDS011;10116;53.112;7.356;2023-04-03T02:31:49;0.60;;;0.60;;
19907;SDS011;10116;53.112;7.356;2023-04-03T02:34:15;0.60;;;0.60;;
19907;SDS011;10116;53.112;7.356;2023-04-03T02:36:40;0.57;;;0.57;;
19907;SDS011;10116;53.112;7.356;2023-04-03T02:39:06;1.70;;;0.73;;
19907;SDS011;10116;53.112;7.356;2023-04-03T02:41:32;1.67;;;0.70;;
19907;SDS011;10116;53.112;7.356;2023-04-03T02:44:01;0.73;;;0.73;;
19907;SDS011;10116;53.112;7.356;2023-04-03T02:46:27;0.83;;;0.60;;
19907;SDS011;10116;53.112;7.356;2023-04-03T02:48:53;1.67;;;0.90;;
19907;SDS011;10116;53.112;7.356;2023-04-03T02:51:19;0.60;;;0.60;;
19907;SDS011;10116;53.112;7.356;2023-04-03T02:53:44;1.27;;;0.70;;
19907;SDS011;10116;53.112;7.356;2023-04-03T02:56:10;0.70;;;0.70;;
19907;SDS011;10116;53.112;7.356;2023-04-03T02:58:36;1.33;;;0.80;;
19907;SDS011;10116;53.112;7.356;2023-04-03T03:01:01;0.90;;;0.57;;
19907;SDS011;10116;53.112;7.356;2023-04-03T03:03:27;1.03;;;0.70;;
19907;SDS011;10116;53.112;7.356;2023-04-03T03:06:03;1.07;;;0.80;;
19907;SDS011;10116;53.112;7.356;2023-04-03T03:08:30;0.73;;;0.73;;
19907;SDS011;10116;53.112;7.356;2023-04-03T03:10:57;1.13;;;0.70;;
19907;SDS011;10116;53.112;7.356;2023-04-03T03:13:22;1.00;;;0.90;;
19907;SDS011;10116;53.112;7.356;2023-04-03T03:15:48;0.80;;;0.73;;
19907;SDS011;10116;53.112;7.356;2023-04-03T03:18:14;0.90;;;0.70;;
19907;SDS011;10116;53.112;7.356;2023-04-03T03:20:39;1.90;;;0.90;;
19907;SDS011;10116;53.112;7.356;2023-04-03T03:23:05;0.80;;;0.60;;
19907;SDS011;10116;53.112;7.356;2023-04-03T03:25:31;0.70;;;0.70;;
19907;SDS011;10116;53.112;7.356;2023-04-03T03:27:56;1.23;;;0.80;;
19907;SDS011;10116;53.112;7.356;2023-04-03T03:30:22;1.00;;;0.70;;
19907;SDS011;10116;53.112;7.356;2023-04-03T03:32:47;1.57;;;0.60;;
19907;SDS011;10116;53.112;7.356;2023-04-03T03:35:13;0.93;;;0.80;;
19907;SDS011;10116;53.112;7.356;2023-04-03T03:37:38;1.00;;;0.80;;
19907;SDS011;10116;53.112;7.356;2023-04-03T03:40:04;1.13;;;0.60;;
19907;SDS011;10116;53.112;7.356;2023-04-03T03:42:30;1.10;;;0.60;;
19907;SDS011;10116;53.112;7.356;2023-04-03T03:44:56;1.90;;;0.70;;
19907;SDS011;10116;53.112;7.356;2023-04-03T03:47:22;1.50;;;1.10;;
19907;SDS011;10116;53.112;7.356;2023-04-03T03:49:47;0.70;;;0.70;;
19907;SDS011;10116;53.112;7.356;2023-04-03T03:52:13;0.80;;;0.80;;
19907;SDS011;10116;53.112;7.356;2023-04-03T03:54:38;0.73;;;0.73;;
19907;SDS011;10116;53.112;7.356;2023-04-03T03:57:04;1.10;;;0.90;;
19907;SDS011;10116;53.112;7.356;2023-04-03T03:59:30;0.90;;;0.60;;
19907;SDS011;10116;53.112;7.356;2023-04-03T04:01:55;1.57;;;0.90;;
19907;SDS011;10116;53.112;7.356;2023-04-03T04:04:21;0.60;;;0.60;;
19907;SDS011;10116;53.112;7.356;2023-04-03T04:06:46;1.03;;;1.03;;
19907;SDS011;10116;53.112;7.356;2023-04-03T04:09:12;0.83;;;0.70;;
19907;SDS011;10116;53.112;7.356;2023-04-03T04:11:38;1.27;;;0.70;;
19907;SDS011;10116;53.112;7.356;2023-04-03T04:14:05;0.70;;;0.60;;
19907;SDS011;10116;53.112;7.356;2023-04-03T04:16:31;0.80;;;0.70;;
19907;SDS011;10116;53.112;7.356;2023-04-03T04:18:57;1.00;;;0.70;;
19907;SDS011;10116;53.112;7.356;2023-04-03T04:21:23;0.70;;;0.60;;
19907;SDS011;10116;53.112;7.356;2023-04-03T04:23:48;1.60;;;0.80;;
19907;SDS011;10116;53.112;7.356;2023-04-03T04:26:14;1.80;;;0.83;;
19907;SDS011;10116;53.112;7.356;2023-04-03T04:28:40;1.73;;;0.70;;
19907;SDS011;10116;53.112;7.356;2023-04-03T04:31:05;0.90;;;0.80;;
19907;SDS011;10116;53.112;7.356;2023-04-03T04:33:31;0.60;;;0.60;;
19907;SDS011;10116;53.112;7.356;2023-04-03T04:35:56;1.60;;;0.77;;
19907;SDS011;10116;53.112;7.356;2023-04-03T04:38:22;1.47;;;0.80;;
19907;SDS011;10116;53.112;7.356;2023-04-03T04:40:48;1.03;;;0.70;;
19907;SDS011;10116;53.112;7.356;2023-04-03T04:43:13;1.07;;;0.87;;
19907;SDS011;10116;53.112;7.356;2023-04-03T04:45:40;1.10;;;1.00;;
19907;SDS011;10116;53.112;7.356;2023-04-03T04:48:06;0.83;;;0.80;;
19907;SDS011;10116;53.112;7.356;2023-04-03T04:50:32;0.83;;;0.83;;
19907;SDS011;10116;53.112;7.356;2023-04-03T04:52:57;1.17;;;1.07;;
19907;SDS011;10116;53.112;7.356;2023-04-03T04:55:23;1.20;;;0.83;;
19907;SDS011;10116;53.112;7.356;2023-04-03T04:57:48;1.77;;;0.97;;
19907;SDS011;10116;53.112;7.356;2023-04-03T05:00:14;0.80;;;0.80;;
19907;SDS011;10116;53.112;7.356;2023-04-03T05:02:40;0.80;;;0.80;;
19907;SDS011;10116;53.112;7.356;2023-04-03T05:05:06;1.13;;;0.90;;
19907;SDS011;10116;53.112;7.356;2023-04-03T05:07:32;3.13;;;1.23;;
19907;SDS011;10116;53.112;7.356;2023-04-03T05:09:58;1.53;;;1.00;;
19907;SDS011;10116;53.112;7.356;2023-04-03T05:12:24;1.20;;;0.90;;
19907;SDS011;10116;53.112;7.356;2023-04-03T05:14:49;1.10;;;0.90;;
19907;SDS011;10116;53.112;7.356;2023-04-03T05:17:15;2.83;;;0.93;;
19907;SDS011;10116;53.112;7.356;2023-04-03T05:19:40;1.60;;;1.03;;
19907;SDS011;10116;53.112;7.356;2023-04-03T05:22:06;1.30;;;1.03;;
19907;SDS011;10116;53.112;7.356;2023-04-03T05:24:32;9.47;;;1.00;;
19907;SDS011;10116;53.112;7.356;2023-04-03T05:26:57;7.30;;;1.47;;
19907;SDS011;10116;53.112;7.356;2023-04-03T05:29:23;1.50;;;1.40;;
19907;SDS011;10116;53.112;7.356;2023-04-03T05:31:49;1.17;;;1.10;;
19907;SDS011;10116;53.112;7.356;2023-04-03T05:34:15;1.97;;;1.00;;
19907;SDS011;10116;53.112;7.356;2023-04-03T05:36:41;1.53;;;1.20;;
19907;SDS011;10116;53.112;7.356;2023-04-03T05:39:07;2.00;;;1.67;;
19907;SDS011;10116;53.112;7.356;2023-04-03T05:41:32;2.10;;;1.20;;
19907;SDS011;10116;53.112;7.356;2023-04-03T05:43:58;1.67;;;1.40;;
19907;SDS011;10116;53.112;7.356;2023-04-03T05:46:24;1.23;;;1.03;;
19907;SDS011;10116;53.112;7.356;2023-04-03T05:48:49;1.57;;;1.27;;
19907;SDS011;10116;53.112;7.356;2023-04-03T05:51:17;3.20;;;1.40;;
19907;SDS011;10116;53.112;7.356;2023-04-03T05:53:44;1.67;;;1.23;;
19907;SDS011;10116;53.112;7.356;2023-04-03T05:56:11;1.27;;;0.97;;
19907;SDS011;10116;53.112;7.356;2023-04-03T05:58:37;1.20;;;1.10;;
19907;SDS011;10116;53.112;7.356;2023-04-03T06:01:03;1.27;;;1.17;;
19907;SDS011;10116;53.112;7.356;2023-04-03T06:03:28;1.33;;;1.27;;
19907;SDS011;10116;53.112;7.356;2023-04-03T06:05:54;2.40;;;1.13;;
19907;SDS011;10116;53.112;7.356;2023-04-03T06:08:20;2.87;;;1.40;;
19907;SDS011;10116;53.112;7.356;2023-04-03T06:10:46;1.90;;;1.40;;
19907;SDS011;10116;53.112;7.356;2023-04-03T06:13:11;1.40;;;1.07;;
19907;SDS011;10116;53.112;7.356;2023-04-03T06:15:37;1.10;;;1.10;;
19907;SDS011;10116;53.112;7.356;2023-04-03T06:18:04;1.30;;;1.20;;
19907;SDS011;10116;53.112;7.356;2023-04-03T06:20:30;1.10;;;1.07;;
19907;SDS011;10116;53.112;7.356;2023-04-03T06:22:56;2.23;;;1.30;;
19907;SDS011;10116;53.112;7.356;2023-04-03T06:25:22;1.80;;;1.50;;
19907;SDS011;10116;53.112;7.356;2023-04-03T06:27:47;1.50;;;1.40;;
19907;SDS011;10116;53.112;7.356;2023-04-03T06:30:13;2.40;;;1.30;;
19907;SDS011;10116;53.112;7.356;2023-04-03T06:32:39;1.33;;;1.23;;
19907;SDS011;10116;53.112;7.356;2023-04-03T06:35:05;1.10;;;1.10;;
19907;SDS011;10116;53.112;7.356;2023-04-03T06:37:31;1.63;;;1.50;;
19907;SDS011;10116;53.112;7.356;2023-04-03T06:39:57;3.50;;;1.37;;
19907;SDS011;10116;53.112;7.356;2023-04-03T06:42:25;2.10;;;0.90;;
19907;SDS011;10116;53.112;7.356;2023-04-03T06:44:51;1.30;;;1.30;;
19907;SDS011;10116;53.112;7.356;2023-04-03T06:47:16;1.20;;;1.20;;
19907;SDS011;10116;53.112;7.356;2023-04-03T06:49:43;2.10;;;1.50;;
19907;SDS011;10116;53.112;7.356;2023-04-03T06:52:09;1.40;;;1.23;;
19907;SDS011;10116;53.112;7.356;2023-04-03T06:54:36;1.60;;;1.50;;
19907;SDS011;10116;53.112;7.356;2023-04-03T06:57:03;2.00;;;1.40;;
19907;SDS011;10116;53.112;7.356;2023-04-03T06:59:28;1.53;;;1.40;;
19907;SDS011;10116;53.112;7.356;2023-04-03T07:01:54;1.30;;;1.20;;
19907;SDS011;10116;53.112;7.356;2023-04-03T07:04:20;1.80;;;1.40;;
19907;SDS011;10116;53.112;7.356;2023-04-03T07:06:46;2.57;;;1.40;;
19907;SDS011;10116;53.112;7.356;2023-04-03T07:09:12;2.23;;;1.40;;
19907;SDS011;10116;53.112;7.356;2023-04-03T07:11:39;1.90;;;1.37;;
19907;SDS011;10116;53.112;7.356;2023-04-03T07:14:05;1.80;;;1.50;;
19907;SDS011;10116;53.112;7.356;2023-04-03T07:16:32;1.50;;;1.40;;
19907;SDS011;10116;53.112;7.356;2023-04-03T07:18:59;6.23;;;1.70;;
19907;SDS011;10116;53.112;7.356;2023-04-03T07:21:25;1.80;;;1.40;;
19907;SDS011;10116;53.112;7.356;2023-04-03T07:23:50;1.30;;;1.27;;
19907;SDS011;10116;53.112;7.356;2023-04-03T07:26:16;1.63;;;1.43;;
19907;SDS011;10116;53.112;7.356;2023-04-03T07:28:42;7.30;;;1.50;;
19907;SDS011;10116;53.112;7.356;2023-04-03T07:31:12;1.97;;;1.27;;
19907;SDS011;10116;53.112;7.356;2023-04-03T07:33:38;1.23;;;1.13;;
19907;SDS011;10116;53.112;7.356;2023-04-03T07:36:06;1.83;;;1.73;;
19907;SDS011;10116;53.112;7.356;2023-04-03T07:38:32;2.07;;;1.30;;
19907;SDS011;10116;53.112;7.356;2023-04-03T07:41:00;1.53;;;1.40;;
19907;SDS011;10116;53.112;7.356;2023-04-03T07:43:25;1.50;;;1.40;;
19907;SDS011;10116;53.112;7.356;2023-04-03T07:45:52;2.07;;;1.40;;
19907;SDS011;10116;53.112;7.356;2023-04-03T07:48:20;1.80;;;1.30;;
19907;SDS011;10116;53.112;7.356;2023-04-03T07:50:47;1.60;;;1.43;;
19907;SDS011;10116;53.112;7.356;2023-04-03T07:53:13;1.90;;;1.33;;
19907;SDS011;10116;53.112;7.356;2023-04-03T07:55:39;1.53;;;1.30;;
19907;SDS011;10116;53.112;7.356;2023-04-03T07:58:11;1.80;;;1.10;;
19907;SDS011;10116;53.112;7.356;2023-04-03T08:00:40;1.30;;;1.20;;
19907;SDS011;10116;53.112;7.356;2023-04-03T08:03:06;1.40;;;1.40;;
19907;SDS011;10116;53.112;7.356;2023-04-03T08:05:36;1.93;;;1.70;;
19907;SDS011;10116;53.112;7.356;2023-04-03T08:08:10;2.40;;;1.40;;
19907;SDS011;10116;53.112;7.356;2023-04-03T08:10:36;2.40;;;1.13;;
19907;SDS011;10116;53.112;7.356;2023-04-03T08:13:02;2.50;;;1.30;;
19907;SDS011;10116;53.112;7.356;2023-04-03T08:15:29;1.60;;;1.50;;
19907;SDS011;10116;53.112;7.356;2023-04-03T08:17:55;1.80;;;1.20;;
19907;SDS011;10116;53.112;7.356;2023-04-03T08:20:21;1.50;;;1.40;;
19907;SDS011;10116;53.112;7.356;2023-04-03T08:22:46;4.17;;;1.30;;
19907;SDS011;10116;53.112;7.356;2023-04-03T08:25:12;1.47;;;1.23;;
19907;SDS011;10116;53.112;7.356;2023-04-03T08:27:38;2.30;;;1.47;;
19907;SDS011;10116;53.112;7.356;2023-04-03T08:30:04;2.53;;;1.43;;
19907;SDS011;10116;53.112;7.356;2023-04-03T08:32:32;3.43;;;1.53;;
19907;SDS011;10116;53.112;7.356;2023-04-03T08:34:59;6.13;;;1.23;;
19907;SDS011;10116;53.112;7.356;2023-04-03T08:37:25;1.80;;;1.50;;
19907;SDS011;10116;53.112;7.356;2023-04-03T08:39:51;1.87;;;1.53;;
19907;SDS011;10116;53.112;7.356;2023-04-03T08:47:57;1.73;;;1.07;;
19907;SDS011;10116;53.112;7.356;2023-04-03T08:50:28;2.87;;;1.53;;
19907;SDS011;10116;53.112;7.356;2023-04-03T08:53:02;2.70;;;1.33;;
19907;SDS011;10116;53.112;7.356;2023-04-03T08:55:33;1.90;;;1.17;;
19907;SDS011;10116;53.112;7.356;2023-04-03T09:00:51;1.13;;;1.07;;
19907;SDS011;10116;53.112;7.356;2023-04-03T09:03:34;3.03;;;1.20;;
19907;SDS011;10116;53.112;7.356;2023-04-03T09:06:05;1.70;;;1.00;;
19907;SDS011;10116;53.112;7.356;2023-04-03T09:21:38;6.70;;;1.17;;
19907;SDS011;10116;53.112;7.356;2023-04-03T09:24:07;0.80;;;0.80;;
19907;SDS011;10116;53.112;7.356;2023-04-03T09:29:12;2.13;;;1.07;;
19907;SDS011;10116;53.112;7.356;2023-04-03T09:31:43;2.13;;;1.10;;
19907;SDS011;10116;53.112;7.356;2023-04-03T09:34:19;1.50;;;1.00;;
19907;SDS011;10116;53.112;7.356;2023-04-03T09:36:56;1.03;;;0.93;;
19907;SDS011;10116;53.112;7.356;2023-04-03T09:39:27;2.63;;;1.03;;
19907;SDS011;10116;53.112;7.356;2023-04-03T09:41:55;1.13;;;1.07;;
19907;SDS011;10116;53.112;7.356;2023-04-03T09:44:34;2.03;;;1.03;;
19907;SDS011;10116;53.112;7.356;2023-04-03T09:47:18;1.17;;;0.90;;
19907;SDS011;10116;53.112;7.356;2023-04-03T09:49:49;2.40;;;1.13;;
19907;SDS011;10116;53.112;7.356;2023-04-03T09:52:24;1.07;;;0.97;;
19907;SDS011;10116;53.112;7.356;2023-04-03T09:54:51;1.20;;;1.10;;
19907;SDS011;10116;53.112;7.356;2023-04-03T09:57:16;1.37;;;0.90;;
19907;SDS011;10116;53.112;7.356;2023-04-03T09:59:48;1.20;;;0.90;;
19907;SDS011;10116;53.112;7.356;2023-04-03T10:04:54;1.40;;;0.83;;
19907;SDS011;10116;53.112;7.356;2023-04-03T10:07:27;1.47;;;1.20;;
19907;SDS011;10116;53.112;7.356;2023-04-03T10:10:22;1.53;;;0.70;;
19907;SDS011;10116;53.112;7.356;2023-04-03T10:13:03;1.00;;;0.90;;
19907;SDS011;10116;53.112;7.356;2023-04-03T10:18:35;0.83;;;0.83;;
19907;SDS011;10116;53.112;7.356;2023-04-03T10:21:27;0.93;;;0.90;;
19907;SDS011;10116;53.112;7.356;2023-04-03T10:27:15;0.97;;;0.87;;
19907;SDS011;10116;53.112;7.356;2023-04-03T10:30:41;1.23;;;0.77;;
19907;SDS011;10116;53.112;7.356;2023-04-03T10:33:08;0.90;;;0.87;;
19907;SDS011;10116;53.112;7.356;2023-04-03T10:41:17;1.33;;;0.90;;
19907;SDS011;10116;53.112;7.356;2023-04-03T10:46:45;0.60;;;0.60;;
19907;SDS011;10116;53.112;7.356;2023-04-03T10:54:58;2.00;;;0.80;;
19907;SDS011;10116;53.112;7.356;2023-04-03T10:57:45;1.00;;;1.00;;
19907;SDS011;10116;53.112;7.356;2023-04-03T11:00:16;0.70;;;0.70;;
19907;SDS011;10116;53.112;7.356;2023-04-03T11:02:51;0.90;;;0.90;;
19907;SDS011;10116;53.112;7.356;2023-04-03T11:10:51;2.00;;;0.77;;
19907;SDS011;10116;53.112;7.356;2023-04-03T11:13:32;1.20;;;0.80;;
19907;SDS011;10116;53.112;7.356;2023-04-03T11:16:01;0.60;;;0.60;;
19907;SDS011;10116;53.112;7.356;2023-04-03T11:20:59;1.10;;;0.80;;
19907;SDS011;10116;53.112;7.356;2023-04-03T11:23:30;1.13;;;0.90;;
19907;SDS011;10116;53.112;7.356;2023-04-03T11:26:06;1.10;;;1.10;;
19907;SDS011;10116;53.112;7.356;2023-04-03T11:28:37;1.00;;;0.90;;
19907;SDS011;10116;53.112;7.356;2023-04-03T11:33:54;1.00;;;1.00;;
19907;SDS011;10116;53.112;7.356;2023-04-03T11:36:26;1.93;;;0.90;;
19907;SDS011;10116;53.112;7.356;2023-04-03T11:38:59;1.37;;;0.60;;
19907;SDS011;10116;53.112;7.356;2023-04-03T11:41:43;2.17;;;1.17;;
19907;SDS011;10116;53.112;7.356;2023-04-03T11:46:57;0.80;;;0.60;;
19907;SDS011;10116;53.112;7.356;2023-04-03T11:57:47;1.20;;;1.13;;
19907;SDS011;10116;53.112;7.356;2023-04-03T12:05:56;1.07;;;0.70;;
19907;SDS011;10116;53.112;7.356;2023-04-03T12:11:21;1.97;;;0.90;;
19907;SDS011;10116;53.112;7.356;2023-04-03T12:42:56;0.70;;;0.70;;
19907;SDS011;10116;53.112;7.356;2023-04-03T12:45:45;1.27;;;0.77;;
19907;SDS011;10116;53.112;7.356;2023-04-03T12:48:28;0.60;;;0.60;;
19907;SDS011;10116;53.112;7.356;2023-04-03T12:50:56;0.70;;;0.70;;
19907;SDS011;10116;53.112;7.356;2023-04-03T12:53:27;0.97;;;0.73;;
19907;SDS011;10116;53.112;7.356;2023-04-03T12:56:18;0.67;;;0.60;;
19907;SDS011;10116;53.112;7.356;2023-04-03T12:58:44;1.67;;;1.00;;
19907;SDS011;10116;53.112;7.356;2023-04-03T13:01:10;2.37;;;0.80;;
19907;SDS011;10116;53.112;7.356;2023-04-03T13:03:39;1.60;;;1.00;;
19907;SDS011;10116;53.112;7.356;2023-04-03T13:06:51;1.30;;;0.90;;
19907;SDS011;10116;53.112;7.356;2023-04-03T13:09:06;1.23;;;0.90;;
19907;SDS011;10116;53.112;7.356;2023-04-03T13:11:41;0.90;;;0.80;;
19907;SDS011;10116;53.112;7.356;2023-04-03T13:14:19;0.67;;;0.67;;
19907;SDS011;10116;53.112;7.356;2023-04-03T13:16:53;0.70;;;0.67;;
19907;SDS011;10116;53.112;7.356;2023-04-03T13:19:22;6.50;;;1.10;;
19907;SDS011;10116;53.112;7.356;2023-04-03T13:21:49;2.07;;;0.90;;
19907;SDS011;10116;53.112;7.356;2023-04-03T13:24:22;0.60;;;0.60;;
19907;SDS011;10116;53.112;7.356;2023-04-03T13:26:48;0.73;;;0.73;;
19907;SDS011;10116;53.112;7.356;2023-04-03T13:29:25;1.90;;;0.83;;
19907;SDS011;10116;53.112;7.356;2023-04-03T13:31:54;0.70;;;0.70;;
19907;SDS011;10116;53.112;7.356;2023-04-03T13:34:21;0.80;;;0.80;;
19907;SDS011;10116;53.112;7.356;2023-04-03T13:39:29;0.90;;;0.70;;
19907;SDS011;10116;53.112;7.356;2023-04-03T13:41:57;1.13;;;0.87;;
19907;SDS011;10116;53.112;7.356;2023-04-03T13:44:36;1.83;;;0.80;;
19907;SDS011;10116;53.112;7.356;2023-04-03T13:49:40;1.23;;;0.80;;
19907;SDS011;10116;53.112;7.356;2023-04-03T13:55:17;1.33;;;1.07;;
19907;SDS011;10116;53.112;7.356;2023-04-03T13:58:34;1.30;;;0.73;;
19907;SDS011;10116;53.112;7.356;2023-04-03T14:03:24;1.93;;;1.33;;
19907;SDS011;10116;53.112;7.356;2023-04-03T14:05:53;1.50;;;1.40;;
19907;SDS011;10116;53.112;7.356;2023-04-03T14:08:19;0.90;;;0.90;;
19907;SDS011;10116;53.112;7.356;2023-04-03T14:10:45;1.10;;;0.90;;
19907;SDS011;10116;53.112;7.356;2023-04-03T14:13:16;1.47;;;1.00;;
19907;SDS011;10116;53.112;7.356;2023-04-03T14:15:44;1.10;;;1.00;;
19907;SDS011;10116;53.112;7.356;2023-04-03T14:18:13;1.87;;;1.10;;
19907;SDS011;10116;53.112;7.356;2023-04-03T14:20:39;1.57;;;1.07;;
19907;SDS011;10116;53.112;7.356;2023-04-03T14:23:05;0.83;;;0.83;;
19907;SDS011;10116;53.112;7.356;2023-04-03T14:25:31;0.97;;;0.93;;
19907;SDS011;10116;53.112;7.356;2023-04-03T14:27:57;1.83;;;0.90;;
19907;SDS011;10116;53.112;7.356;2023-04-03T14:30:30;1.17;;;0.90;;
19907;SDS011;10116;53.112;7.356;2023-04-03T14:32:56;1.50;;;1.07;;
19907;SDS011;10116;53.112;7.356;2023-04-03T14:35:23;1.23;;;1.10;;
19907;SDS011;10116;53.112;7.356;2023-04-03T14:37:50;1.13;;;0.80;;
19907;SDS011;10116;53.112;7.356;2023-04-03T14:40:19;0.97;;;0.97;;
19907;SDS011;10116;53.112;7.356;2023-04-03T14:42:47;0.97;;;0.97;;
19907;SDS011;10116;53.112;7.356;2023-04-03T14:45:14;1.30;;;1.17;;
19907;SDS011;10116;53.112;7.356;2023-04-03T14:47:42;2.13;;;1.10;;
19907;SDS011;10116;53.112;7.356;2023-04-03T14:50:16;0.70;;;0.70;;
19907;SDS011;10116;53.112;7.356;2023-04-03T14:52:47;0.90;;;0.70;;
19907;SDS011;10116;53.112;7.356;2023-04-03T14:55:14;2.70;;;1.10;;
19907;SDS011;10116;53.112;7.356;2023-04-03T14:57:41;1.63;;;1.00;;
19907;SDS011;10116;53.112;7.356;2023-04-03T15:00:10;1.33;;;1.00;;
19907;SDS011;10116;53.112;7.356;2023-04-03T15:02:39;1.20;;;1.10;;
19907;SDS011;10116;53.112;7.356;2023-04-03T15:05:06;3.30;;;0.80;;
19907;SDS011;10116;53.112;7.356;2023-04-03T15:07:44;1.20;;;0.70;;
19907;SDS011;10116;53.112;7.356;2023-04-03T15:10:15;0.97;;;0.97;;
19907;SDS011;10116;53.112;7.356;2023-04-03T15:12:44;1.20;;;0.77;;
19907;SDS011;10116;53.112;7.356;2023-04-03T15:15:10;5.80;;;1.00;;
19907;SDS011;10116;53.112;7.356;2023-04-03T15:17:36;0.93;;;0.93;;
19907;SDS011;10116;53.112;7.356;2023-04-03T15:20:02;1.87;;;0.90;;
19907;SDS011;10116;53.112;7.356;2023-04-03T15:22:28;1.00;;;0.80;;
19907;SDS011;10116;53.112;7.356;2023-04-03T15:24:54;3.13;;;1.40;;
19907;SDS011;10116;53.112;7.356;2023-04-03T15:27:19;1.07;;;0.90;;
19907;SDS011;10116;53.112;7.356;2023-04-03T15:29:45;1.10;;;0.97;;
19907;SDS011;10116;53.112;7.356;2023-04-03T15:32:11;0.70;;;0.70;;
19907;SDS011;10116;53.112;7.356;2023-04-03T15:34:37;0.73;;;0.73;;
19907;SDS011;10116;53.112;7.356;2023-04-03T15:37:04;1.53;;;0.90;;
19907;SDS011;10116;53.112;7.356;2023-04-03T15:39:30;0.93;;;0.80;;
19907;SDS011;10116;53.112;7.356;2023-04-03T15:41:56;1.87;;;1.07;;
19907;SDS011;10116;53.112;7.356;2023-04-03T15:44:24;0.80;;;0.70;;
19907;SDS011;10116;53.112;7.356;2023-04-03T15:46:50;0.93;;;0.73;;
19907;SDS011;10116;53.112;7.356;2023-04-03T15:49:16;1.13;;;1.03;;
19907;SDS011;10116;53.112;7.356;2023-04-03T15:51:43;1.63;;;0.80;;
19907;SDS011;10116;53.112;7.356;2023-04-03T15:54:08;0.77;;;0.77;;
19907;SDS011;10116;53.112;7.356;2023-04-03T15:56:34;2.13;;;0.93;;
19907;SDS011;10116;53.112;7.356;2023-04-03T15:59:00;1.07;;;0.80;;
19907;SDS011;10116;53.112;7.356;2023-04-03T16:01:25;1.57;;;1.10;;
19907;SDS011;10116;53.112;7.356;2023-04-03T16:03:51;0.90;;;0.90;;
19907;SDS011;10116;53.112;7.356;2023-04-03T16:06:17;0.90;;;0.90;;
19907;SDS011;10116;53.112;7.356;2023-04-03T16:08:43;4.40;;;0.90;;
19907;SDS011;10116;53.112;7.356;2023-04-03T16:11:10;1.17;;;0.83;;
19907;SDS011;10116;53.112;7.356;2023-04-03T16:13:36;0.70;;;0.63;;
19907;SDS011;10116;53.112;7.356;2023-04-03T16:16:02;1.43;;;0.70;;
19907;SDS011;10116;53.112;7.356;2023-04-03T16:18:29;1.10;;;0.90;;
19907;SDS011;10116;53.112;7.356;2023-04-03T16:20:55;1.77;;;1.00;;
19907;SDS011;10116;53.112;7.356;2023-04-03T16:23:21;0.73;;;0.70;;
19907;SDS011;10116;53.112;7.356;2023-04-03T16:25:48;1.10;;;0.73;;
19907;SDS011;10116;53.112;7.356;2023-04-03T16:28:14;1.00;;;0.90;;
19907;SDS011;10116;53.112;7.356;2023-04-03T16:30:42;0.70;;;0.70;;
19907;SDS011;10116;53.112;7.356;2023-04-03T16:33:09;1.20;;;1.03;;
19907;SDS011;10116;53.112;7.356;2023-04-03T16:35:35;0.83;;;0.60;;
19907;SDS011;10116;53.112;7.356;2023-04-03T16:38:01;1.00;;;0.80;;
19907;SDS011;10116;53.112;7.356;2023-04-03T16:40:27;0.87;;;0.80;;
19907;SDS011;10116;53.112;7.356;2023-04-03T16:42:53;1.00;;;0.87;;
19907;SDS011;10116;53.112;7.356;2023-04-03T16:45:18;1.00;;;0.90;;
19907;SDS011;10116;53.112;7.356;2023-04-03T16:47:44;1.20;;;0.73;;
19907;SDS011;10116;53.112;7.356;2023-04-03T16:50:10;1.10;;;1.00;;
19907;SDS011;10116;53.112;7.356;2023-04-03T16:52:35;1.17;;;1.00;;
19907;SDS011;10116;53.112;7.356;2023-04-03T16:55:01;3.83;;;1.00;;
19907;SDS011;10116;53.112;7.356;2023-04-03T16:57:27;1.57;;;0.80;;
19907;SDS011;10116;53.112;7.356;2023-04-03T16:59:52;1.73;;;1.00;;
19907;SDS011;10116;53.112;7.356;2023-04-03T17:02:19;1.20;;;1.03;;
19907;SDS011;10116;53.112;7.356;2023-04-03T17:04:46;0.90;;;0.90;;